createdAt,value
2018-09-08T00:00:55.685Z,99.90
2018-09-08T00:03:23.833Z,99.90
2018-09-08T00:05:52.008Z,99.90
2018-09-08T00:08:20.188Z,99.90
2018-09-08T00:10:48.368Z,99.90
2018-09-08T00:13:16.549Z,99.90
2018-09-08T00:15:50.053Z,99.90
2018-09-08T00:18:23.801Z,99.90
2018-09-08T00:20:57.336Z,99.90
2018-09-08T00:23:31.004Z,99.90
2018-09-08T00:26:04.660Z,99.90
2018-09-08T00:28:37.110Z,99.90
2018-09-08T00:31:05.683Z,99.90
2018-09-08T00:33:33.840Z,99.90
2018-09-08T00:36:02.017Z,99.90
2018-09-08T00:38:30.226Z,99.90
2018-09-08T00:40:58.296Z,99.90
2018-09-08T00:43:26.424Z,99.90
2018-09-08T00:45:55.187Z,99.90
2018-09-08T00:48:23.248Z,99.90
2018-09-08T00:50:51.413Z,99.90
2018-09-08T00:53:19.976Z,99.90
2018-09-08T00:55:48.100Z,99.90
2018-09-08T00:58:16.253Z,99.90
2018-09-08T01:00:44.796Z,99.90
2018-09-08T01:03:12.988Z,99.90
2018-09-08T01:05:41.628Z,99.90
2018-09-08T01:08:11.732Z,99.90
2018-09-08T01:10:40.375Z,99.90
2018-09-08T01:13:08.553Z,99.90
2018-09-08T01:15:36.759Z,99.90
2018-09-08T01:18:06.415Z,99.90
2018-09-08T01:20:35.901Z,99.90
2018-09-08T01:23:04.403Z,99.90
2018-09-08T01:25:32.543Z,99.90
2018-09-08T01:28:01.212Z,99.90
2018-09-08T01:30:29.820Z,99.90
2018-09-08T01:32:59.060Z,99.90
2018-09-08T01:35:27.251Z,99.90
2018-09-08T01:37:55.553Z,99.90
2018-09-08T01:40:23.700Z,99.90
2018-09-08T01:42:51.879Z,99.90
2018-09-08T01:45:20.020Z,99.90
2018-09-08T01:47:48.176Z,99.90
2018-09-08T01:50:16.336Z,99.90
2018-09-08T01:52:45.077Z,99.90
2018-09-08T01:55:13.249Z,99.90
2018-09-08T01:57:41.484Z,99.90
2018-09-08T02:00:10.133Z,99.90
2018-09-08T02:02:38.350Z,99.90
2018-09-08T02:05:07.337Z,99.90
2018-09-08T02:07:36.515Z,99.90
2018-09-08T02:10:05.619Z,99.90
2018-09-08T02:12:33.784Z,99.90
2018-09-08T02:15:01.977Z,99.90
2018-09-08T02:17:30.122Z,99.90
2018-09-08T02:19:58.289Z,99.90
2018-09-08T02:22:26.796Z,99.90
2018-09-08T02:24:54.952Z,99.90
2018-09-08T02:27:23.208Z,99.90
2018-09-08T02:29:51.382Z,99.90
2018-09-08T02:32:19.552Z,99.90
2018-09-08T02:34:47.752Z,99.90
2018-09-08T02:37:15.945Z,99.90
2018-09-08T02:39:44.105Z,99.90
2018-09-08T02:42:12.220Z,99.90
2018-09-08T02:44:41.263Z,99.90
2018-09-08T02:47:10.099Z,99.90
2018-09-08T02:49:49.561Z,99.90
2018-09-08T02:52:17.116Z,99.90
2018-09-08T02:54:44.286Z,99.90
2018-09-08T02:57:11.443Z,99.90
2018-09-08T02:59:39.358Z,99.90
2018-09-08T03:02:06.566Z,99.90
2018-09-08T03:04:34.585Z,99.90
2018-09-08T03:07:05.997Z,99.90
2018-09-08T03:09:33.239Z,99.90
2018-09-08T03:12:00.422Z,99.90
2018-09-08T03:14:27.592Z,99.90
2018-09-08T03:16:54.946Z,99.90
2018-09-08T03:19:23.437Z,99.90
2018-09-08T03:21:50.692Z,99.90
2018-09-08T03:24:17.802Z,99.90
2018-09-08T03:26:44.968Z,99.90
2018-09-08T03:29:12.124Z,99.90
2018-09-08T03:31:39.329Z,99.90
2018-09-08T03:34:07.372Z,99.90
2018-09-08T03:36:34.526Z,99.90
2018-09-08T03:39:02.681Z,99.90
2018-09-08T03:41:29.849Z,99.90
2018-09-08T03:43:57.012Z,99.90
2018-09-08T03:46:24.210Z,99.90
2018-09-08T03:48:52.372Z,99.90
2018-09-08T03:51:19.551Z,99.90
2018-09-08T03:53:46.972Z,99.90
2018-09-08T03:56:14.228Z,99.90
2018-09-08T03:58:41.403Z,99.90
2018-09-08T04:01:08.556Z,99.90
2018-09-08T04:03:36.730Z,99.90
2018-09-08T04:06:04.932Z,99.90
2018-09-08T04:08:33.100Z,99.90
2018-09-08T04:11:01.272Z,99.90
2018-09-08T04:13:29.427Z,99.90
2018-09-08T04:15:58.020Z,99.90
2018-09-08T04:18:26.184Z,99.90
2018-09-08T04:20:54.389Z,99.90
2018-09-08T04:23:22.600Z,99.90
2018-09-08T04:25:50.752Z,99.90
2018-09-08T04:28:18.879Z,99.90
2018-09-08T04:30:47.060Z,99.90
2018-09-08T04:33:15.228Z,99.90
2018-09-08T04:35:43.592Z,99.90
2018-09-08T04:38:11.743Z,99.90
2018-09-08T04:40:39.960Z,99.90
2018-09-08T04:43:08.150Z,99.90
2018-09-08T04:45:36.325Z,99.90
2018-09-08T04:48:05.746Z,99.90
2018-09-08T04:50:33.995Z,99.90
2018-09-08T04:53:02.204Z,99.90
2018-09-08T04:55:30.402Z,99.90
2018-09-08T04:57:58.901Z,99.90
2018-09-08T05:00:27.111Z,99.90
2018-09-08T05:02:55.353Z,99.90
2018-09-08T05:05:23.581Z,99.90
2018-09-08T05:07:51.737Z,99.90
2018-09-08T05:10:20.023Z,99.90
2018-09-08T05:12:48.339Z,99.90
2018-09-08T05:15:17.137Z,99.90
2018-09-08T05:17:45.309Z,99.90
2018-09-08T05:20:13.467Z,99.90
2018-09-08T05:22:41.665Z,99.90
2018-09-08T05:25:09.828Z,99.90
2018-09-08T05:27:37.960Z,99.90
2018-09-08T05:30:06.153Z,99.90
2018-09-08T05:32:34.668Z,99.90
2018-09-08T05:35:02.931Z,99.90
2018-09-08T05:37:31.052Z,99.90
2018-09-08T05:39:59.186Z,99.90
2018-09-08T05:42:27.336Z,99.90
2018-09-08T05:44:55.506Z,99.90
2018-09-08T05:47:23.680Z,99.90
2018-09-08T05:49:51.993Z,99.90
2018-09-08T05:52:20.122Z,99.90
2018-09-08T05:54:48.296Z,99.90
2018-09-08T05:57:17.668Z,99.90
2018-09-08T05:59:45.853Z,99.90
2018-09-08T06:02:14.017Z,99.90
2018-09-08T06:04:42.524Z,99.90
2018-09-08T06:07:11.152Z,99.90
2018-09-08T06:09:39.328Z,99.90
2018-09-08T06:12:08.097Z,99.90
2018-09-08T06:14:36.284Z,99.90
2018-09-08T06:17:04.563Z,99.90
2018-09-08T06:19:32.773Z,99.90
2018-09-08T06:22:00.844Z,99.90
2018-09-08T06:24:29.105Z,99.90
2018-09-08T06:26:57.194Z,99.90
2018-09-08T06:29:25.381Z,99.90
2018-09-08T06:31:54.779Z,99.90
2018-09-08T06:34:22.881Z,99.90
2018-09-08T06:36:51.322Z,99.90
2018-09-08T06:39:20.428Z,99.90
2018-09-08T06:41:48.609Z,99.90
2018-09-08T06:44:16.773Z,99.90
2018-09-08T06:46:44.924Z,99.90
2018-09-08T06:49:13.096Z,99.90
2018-09-08T06:51:42.308Z,99.90
2018-09-08T06:54:10.480Z,99.90
2018-09-08T06:56:38.694Z,99.90
2018-09-08T06:59:06.840Z,99.90
2018-09-08T07:01:35.020Z,99.90
2018-09-08T07:04:04.880Z,99.90
2018-09-08T07:06:33.058Z,99.90
2018-09-08T07:09:01.708Z,99.90
2018-09-08T07:11:30.836Z,99.90
2018-09-08T07:16:31.295Z,99.90
2018-09-08T07:18:59.404Z,99.90
2018-09-08T07:21:28.415Z,99.90
2018-09-08T07:23:57.612Z,99.90
2018-09-08T07:26:25.768Z,99.90
2018-09-08T07:28:53.979Z,99.90
2018-09-08T07:31:22.138Z,99.90
2018-09-08T07:33:50.288Z,99.90
2018-09-08T07:36:18.395Z,99.90
2018-09-08T07:38:46.528Z,99.90
2018-09-08T07:41:14.652Z,99.90
2018-09-08T07:43:43.416Z,99.90
2018-09-08T07:46:13.212Z,99.90
2018-09-08T07:48:41.784Z,99.90
2018-09-08T07:51:09.963Z,99.90
2018-09-08T07:53:38.219Z,99.90
2018-09-08T07:56:06.638Z,99.90
2018-09-08T07:58:35.364Z,99.90
2018-09-08T08:01:03.473Z,99.90
2018-09-08T08:03:31.680Z,99.90
2018-09-08T08:05:59.836Z,99.90
2018-09-08T08:08:29.245Z,99.90
2018-09-08T08:10:57.452Z,99.90
2018-09-08T08:13:25.679Z,99.90
2018-09-08T08:15:53.828Z,99.60
2018-09-08T08:18:22.024Z,99.90
2018-09-08T08:20:50.211Z,99.90
2018-09-08T08:23:18.411Z,99.90
2018-09-08T08:25:46.806Z,99.90
2018-09-08T08:28:14.981Z,99.90
2018-09-08T08:30:43.144Z,99.90
2018-09-08T08:33:11.580Z,99.70
2018-09-08T08:35:42.364Z,99.90
2018-09-08T08:38:10.608Z,98.20
2018-09-08T08:40:39.070Z,97.00
2018-09-08T08:43:07.300Z,97.10
2018-09-08T08:45:35.397Z,96.70
2018-09-08T08:48:04.076Z,96.00
2018-09-08T08:50:43.880Z,95.60
2018-09-08T08:53:23.308Z,95.60
2018-09-08T08:55:51.519Z,95.50
2018-09-08T08:58:19.636Z,95.20
2018-09-08T09:00:47.816Z,95.30
2018-09-08T09:03:15.972Z,95.60
2018-09-08T09:05:44.566Z,94.50
2018-09-08T09:08:12.688Z,95.10
2018-09-08T09:10:40.926Z,95.00
2018-09-08T09:13:09.056Z,95.60
2018-09-08T09:15:37.261Z,94.60
2018-09-08T09:18:05.412Z,94.40
2018-09-08T09:20:45.388Z,94.10
2018-09-08T09:23:25.404Z,94.00
2018-09-08T09:25:53.558Z,94.00
2018-09-08T09:28:21.677Z,92.90
2018-09-08T09:30:49.863Z,92.70
2018-09-08T09:33:18.041Z,92.30
2018-09-08T09:35:46.428Z,91.50
2018-09-08T09:38:14.634Z,90.90
2018-09-08T09:40:42.836Z,90.60
2018-09-08T09:43:11.860Z,90.10
2018-09-08T09:45:40.002Z,90.80
2018-09-08T09:48:08.144Z,90.20
2018-09-08T09:50:36.345Z,87.90
2018-09-08T09:53:04.727Z,87.80
2018-09-08T09:55:32.924Z,86.50
2018-09-08T09:58:01.602Z,88.50
2018-09-08T10:00:35.296Z,89.30
2018-09-08T10:03:06.464Z,87.70
2018-09-08T10:05:35.795Z,87.20
2018-09-08T10:08:04.005Z,88.10
2018-09-08T10:10:32.336Z,88.40
2018-09-08T10:13:00.520Z,88.20
2018-09-08T10:15:29.288Z,87.90
2018-09-08T10:17:58.823Z,87.80
2018-09-08T10:20:26.960Z,89.00
2018-09-08T10:22:55.216Z,87.60
2018-09-08T10:25:23.361Z,88.00
2018-09-08T10:27:52.160Z,85.40
2018-09-08T10:30:21.089Z,85.30
2018-09-08T10:32:49.206Z,85.20
2018-09-08T10:35:17.404Z,85.90
2018-09-08T10:37:45.624Z,83.90
2018-09-08T10:40:14.132Z,82.80
2018-09-08T10:42:43.214Z,78.70
2018-09-08T10:45:11.713Z,76.10
2018-09-08T10:47:39.960Z,77.30
2018-09-08T10:50:09.255Z,76.00
2018-09-08T10:52:40.093Z,76.90
2018-09-08T10:55:08.264Z,78.00
2018-09-08T10:57:37.478Z,77.80
2018-09-08T11:00:06.216Z,76.40
2018-09-08T11:02:34.626Z,76.80
2018-09-08T11:05:03.646Z,74.60
2018-09-08T11:07:32.204Z,74.50
2018-09-08T11:10:00.428Z,73.70
2018-09-08T11:12:29.601Z,72.90
2018-09-08T11:14:57.759Z,72.70
2018-09-08T11:17:25.904Z,70.30
2018-09-08T11:19:54.051Z,70.90
2018-09-08T11:22:22.196Z,70.00
2018-09-08T11:24:50.376Z,71.30
2018-09-08T11:27:18.540Z,70.40
2018-09-08T11:29:46.731Z,71.20
2018-09-08T11:32:15.118Z,71.10
2018-09-08T11:34:44.320Z,72.50
2018-09-08T11:37:12.992Z,71.70
2018-09-08T11:39:41.197Z,70.80
2018-09-08T11:42:09.363Z,71.00
2018-09-08T11:44:37.916Z,70.10
2018-09-08T11:47:06.064Z,70.40
2018-09-08T11:49:34.288Z,70.80
2018-09-08T11:52:02.396Z,70.50
2018-09-08T11:54:30.521Z,68.60
2018-09-08T11:56:59.609Z,67.40
2018-09-08T11:59:28.614Z,66.90
2018-09-08T12:01:56.756Z,68.10
2018-09-08T12:04:24.872Z,68.20
2018-09-08T12:06:53.164Z,68.20
2018-09-08T12:09:22.500Z,68.40
2018-09-08T12:11:50.692Z,69.00
2018-09-08T12:14:18.849Z,68.10
2018-09-08T12:16:47.011Z,67.50
2018-09-08T12:19:15.497Z,68.40
2018-09-08T12:21:43.609Z,69.30
2018-09-08T12:24:11.817Z,69.70
2018-09-08T12:26:39.960Z,70.10
2018-09-08T12:29:08.088Z,70.00
2018-09-08T12:31:36.214Z,68.20
2018-09-08T12:34:04.349Z,69.20
2018-09-08T12:36:33.405Z,68.20
2018-09-08T12:39:02.704Z,68.20
2018-09-08T12:41:31.710Z,67.80
2018-09-08T12:43:59.866Z,69.70
2018-09-08T12:46:29.094Z,70.50
2018-09-08T12:48:57.276Z,68.70
2018-09-08T12:51:25.440Z,69.50
2018-09-08T12:53:53.608Z,69.90
2018-09-08T12:56:21.756Z,71.40
2018-09-08T12:58:49.937Z,71.30
2018-09-08T13:01:18.137Z,71.00
2018-09-08T13:03:48.111Z,70.90
2018-09-08T13:06:16.245Z,69.60
2018-09-08T13:08:45.094Z,70.00
2018-09-08T13:11:13.224Z,72.20
2018-09-08T13:13:42.775Z,72.40
2018-09-08T13:16:10.893Z,71.90
2018-09-08T13:18:39.124Z,74.00
2018-09-08T13:21:07.345Z,75.00
2018-09-08T13:23:35.547Z,74.50
2018-09-08T13:26:03.717Z,73.10
2018-09-08T13:28:31.952Z,72.90
2018-09-08T13:31:00.100Z,71.80
2018-09-08T13:33:28.293Z,71.20
2018-09-08T13:35:56.652Z,71.90
2018-09-08T13:38:24.800Z,72.80
2018-09-08T13:40:53.545Z,71.80
2018-09-08T13:43:21.669Z,71.70
2018-09-08T13:45:49.820Z,70.80
2018-09-08T13:48:18.010Z,70.20
2018-09-08T13:50:46.173Z,70.10
2018-09-08T13:53:14.370Z,70.00
2018-09-08T13:55:43.240Z,72.10
2018-09-08T13:58:11.435Z,72.50
2018-09-08T14:00:39.588Z,71.60
2018-09-08T14:03:07.801Z,71.10
2018-09-08T14:05:35.954Z,69.90
2018-09-08T14:08:06.939Z,70.10
2018-09-08T14:10:35.169Z,69.20
2018-09-08T14:13:04.028Z,68.40
2018-09-08T14:15:32.236Z,67.20
2018-09-08T14:18:00.402Z,67.20
2018-09-08T14:20:28.567Z,68.60
2018-09-08T14:22:56.731Z,70.50
2018-09-08T14:25:24.880Z,71.00
2018-09-08T14:27:53.081Z,70.90
2018-09-08T14:30:21.213Z,71.20
2018-09-08T14:32:49.384Z,72.10
2018-09-08T14:35:17.575Z,72.90
2018-09-08T14:37:46.386Z,73.30
2018-09-08T14:40:15.760Z,71.50
2018-09-08T14:42:44.684Z,71.10
2018-09-08T14:45:12.865Z,70.40
2018-09-08T14:47:41.159Z,71.20
2018-09-08T14:50:09.250Z,71.90
2018-09-08T14:52:37.436Z,70.70
2018-09-08T14:55:06.364Z,69.90
2018-09-08T14:57:35.293Z,71.40
2018-09-08T15:00:03.476Z,72.00
2018-09-08T15:02:31.676Z,72.10
2018-09-08T15:04:59.846Z,71.20
2018-09-08T15:07:27.960Z,71.90
2018-09-08T15:09:56.437Z,71.00
2018-09-08T15:12:25.042Z,71.80
2018-09-08T15:14:53.229Z,73.00
2018-09-08T15:17:21.611Z,73.80
2018-09-08T15:19:49.964Z,75.10
2018-09-08T15:22:18.120Z,75.70
2018-09-08T15:24:46.477Z,76.40
2018-09-08T15:27:14.661Z,76.50
2018-09-08T15:29:42.808Z,77.70
2018-09-08T15:32:10.987Z,78.90
2018-09-08T15:34:39.136Z,79.10
2018-09-08T15:37:07.276Z,79.70
2018-09-08T15:39:35.403Z,80.70
2018-09-08T15:42:03.783Z,80.50
2018-09-08T15:44:31.977Z,81.50
2018-09-08T15:47:00.461Z,81.00
2018-09-08T15:49:28.686Z,81.60
2018-09-08T15:51:57.492Z,82.30
2018-09-08T15:54:25.648Z,83.00
2018-09-08T15:56:53.814Z,83.70
2018-09-08T15:59:22.829Z,84.00
2018-09-08T16:01:51.021Z,84.00
2018-09-08T16:04:19.183Z,84.10
2018-09-08T16:06:47.318Z,84.30
2018-09-08T16:09:15.459Z,84.10
2018-09-08T16:11:43.604Z,84.80
2018-09-08T16:14:11.999Z,85.50
2018-09-08T16:16:40.257Z,85.70
2018-09-08T16:19:08.985Z,86.40
2018-09-08T16:21:38.156Z,86.30
2018-09-08T16:24:06.368Z,86.80
2018-09-08T16:26:34.528Z,86.10
2018-09-08T16:29:03.377Z,86.00
2018-09-08T16:31:31.539Z,86.50
2018-09-08T16:34:01.077Z,87.30
2018-09-08T16:36:29.189Z,87.40
2018-09-08T16:38:57.300Z,87.70
2018-09-08T16:41:25.503Z,87.40
2018-09-08T16:43:53.687Z,87.80
2018-09-08T16:46:22.700Z,88.20
2018-09-08T16:48:50.882Z,88.50
2018-09-08T16:51:19.041Z,88.70
2018-09-08T16:53:47.484Z,89.00
2018-09-08T16:56:15.644Z,89.50
2018-09-08T16:58:43.840Z,89.60
2018-09-08T17:01:13.159Z,89.60
2018-09-08T17:03:41.341Z,90.00
2018-09-08T17:06:09.783Z,90.00
2018-09-08T17:08:38.246Z,90.10
2018-09-08T17:11:06.395Z,90.00
2018-09-08T17:13:34.551Z,90.10
2018-09-08T17:16:03.050Z,90.10
2018-09-08T17:18:31.172Z,90.20
2018-09-08T17:20:59.904Z,90.30
2018-09-08T17:23:28.104Z,90.60
2018-09-08T17:25:56.637Z,90.90
2018-09-08T17:28:24.859Z,91.10
2018-09-08T17:30:53.781Z,91.40
2018-09-08T17:33:22.421Z,91.70
2018-09-08T17:35:50.620Z,91.90
2018-09-08T17:38:19.768Z,92.00
2018-09-08T17:40:47.936Z,92.20
2018-09-08T17:43:16.620Z,92.40
2018-09-08T17:45:45.432Z,92.60
2018-09-08T17:48:14.257Z,93.00
2018-09-08T17:50:42.489Z,93.20
2018-09-08T17:53:10.636Z,93.20
2018-09-08T17:55:39.688Z,93.30
2018-09-08T17:58:08.069Z,93.30
2018-09-08T18:00:36.324Z,93.20
2018-09-08T18:03:04.661Z,93.30
2018-09-08T18:05:39.760Z,93.30
2018-09-08T18:08:16.092Z,93.40
2018-09-08T18:10:44.236Z,93.70
2018-09-08T18:13:12.364Z,94.10
2018-09-08T18:15:40.521Z,94.40
2018-09-08T18:18:16.196Z,94.90
2018-09-08T18:20:44.373Z,95.50
2018-09-08T18:23:12.627Z,95.60
2018-09-08T18:25:40.729Z,95.80
2018-09-08T18:28:09.577Z,95.50
2018-09-08T18:30:38.400Z,95.50
2018-09-08T18:33:07.341Z,95.70
2018-09-08T18:35:37.364Z,96.00
2018-09-08T18:38:05.555Z,96.10
2018-09-08T18:40:34.293Z,96.30
2018-09-08T18:43:02.797Z,96.60
2018-09-08T18:45:30.949Z,97.50
2018-09-08T18:47:59.087Z,98.00
2018-09-08T18:50:27.286Z,98.50
2018-09-08T18:52:55.452Z,99.00
2018-09-08T18:55:24.631Z,99.90
2018-09-08T18:57:53.559Z,99.90
2018-09-08T19:00:22.803Z,99.90
2018-09-08T19:02:52.616Z,99.90
2018-09-08T19:05:20.785Z,99.90
2018-09-08T19:07:49.548Z,99.90
2018-09-08T19:10:24.323Z,99.90
2018-09-08T19:12:53.297Z,99.90
2018-09-08T19:15:22.296Z,99.90
2018-09-08T19:17:50.522Z,99.90
2018-09-08T19:20:24.053Z,99.90
2018-09-08T19:22:52.228Z,99.90
2018-09-08T19:25:20.884Z,99.90
2018-09-08T19:27:50.250Z,99.90
2018-09-08T19:30:19.410Z,99.90
2018-09-08T19:32:47.560Z,99.90
2018-09-08T19:35:21.160Z,99.90
2018-09-08T19:37:49.392Z,99.90
2018-09-08T19:40:23.104Z,99.90
2018-09-08T19:42:51.594Z,99.90
2018-09-08T19:45:19.657Z,99.90
2018-09-08T19:47:53.220Z,99.90
2018-09-08T19:50:21.364Z,99.90
2018-09-08T19:52:55.253Z,99.90
2018-09-08T19:55:23.721Z,99.90
2018-09-08T19:57:57.364Z,99.90
2018-09-08T20:00:26.665Z,99.90
2018-09-08T20:02:55.620Z,99.90
2018-09-08T20:05:23.777Z,99.90
2018-09-08T20:07:52.479Z,99.90
2018-09-08T20:10:20.695Z,99.90
2018-09-08T20:12:48.877Z,99.90
2018-09-08T20:15:17.247Z,99.90
2018-09-08T20:17:45.400Z,99.90
2018-09-08T20:20:13.877Z,99.90
2018-09-08T20:22:42.061Z,99.90
2018-09-08T20:25:10.965Z,99.90
2018-09-08T20:27:39.368Z,99.90
2018-09-08T20:30:08.275Z,99.90
2018-09-08T20:32:36.432Z,99.90
2018-09-08T20:35:04.985Z,99.90
2018-09-08T20:37:33.224Z,99.90
2018-09-08T20:40:02.010Z,99.90
2018-09-08T20:42:30.413Z,99.90
2018-09-08T20:44:58.585Z,99.90
2018-09-08T20:47:26.729Z,99.90
2018-09-08T20:49:55.684Z,99.90
2018-09-08T20:52:23.839Z,99.90
2018-09-08T20:54:52.061Z,99.90
2018-09-08T20:57:20.217Z,99.90
2018-09-08T20:59:48.392Z,99.90
2018-09-08T21:02:16.873Z,99.90
2018-09-08T21:04:45.025Z,99.90
2018-09-08T21:07:13.176Z,99.90
2018-09-08T21:09:41.407Z,99.90
2018-09-08T21:12:09.774Z,99.90
2018-09-08T21:14:39.752Z,99.90
2018-09-08T21:17:08.513Z,99.90
2018-09-08T21:19:37.277Z,99.90
2018-09-08T21:22:05.484Z,99.90
2018-09-08T21:24:33.670Z,99.90
2018-09-08T21:27:03.436Z,99.90
2018-09-08T21:29:31.548Z,99.90
2018-09-08T21:32:00.345Z,99.90
2018-09-08T21:34:28.483Z,99.90
2018-09-08T21:36:56.655Z,99.90
2018-09-08T21:39:24.826Z,99.90
2018-09-08T21:41:53.022Z,99.90
2018-09-08T21:44:21.158Z,99.90
2018-09-08T21:46:49.328Z,99.90
2018-09-08T21:49:17.453Z,99.90
2018-09-08T21:51:45.865Z,99.90
2018-09-08T21:54:14.106Z,99.90
2018-09-08T21:56:42.235Z,99.90
2018-09-08T21:59:10.746Z,99.90
2018-09-08T22:01:39.399Z,99.90
2018-09-08T22:04:07.536Z,99.90
2018-09-08T22:06:35.726Z,99.90
2018-09-08T22:09:06.621Z,99.90
2018-09-08T22:11:34.790Z,99.90
2018-09-08T22:14:03.485Z,99.90
2018-09-08T22:16:32.417Z,99.90
2018-09-08T22:19:00.612Z,99.90
2018-09-08T22:21:28.806Z,99.90
2018-09-08T22:23:56.988Z,99.90
2018-09-08T22:26:25.156Z,99.90
2018-09-08T22:28:53.345Z,99.90
2018-09-08T22:31:21.541Z,99.90
2018-09-08T22:33:49.743Z,99.90
2018-09-08T22:36:17.924Z,99.90
2018-09-08T22:38:46.101Z,99.90
2018-09-08T22:41:15.191Z,99.90
2018-09-08T22:43:43.675Z,99.90
2018-09-08T22:46:11.864Z,99.90
2018-09-08T22:48:40.737Z,99.90
2018-09-08T22:51:08.897Z,99.90
2018-09-08T22:53:37.119Z,99.90
2018-09-08T22:56:05.329Z,99.90
2018-09-08T22:58:33.495Z,99.90
2018-09-08T23:01:02.633Z,99.90
2018-09-08T23:03:30.820Z,99.90
2018-09-08T23:05:58.985Z,99.90
2018-09-08T23:08:27.198Z,99.90
2018-09-08T23:10:55.365Z,99.90
2018-09-08T23:13:24.507Z,99.90
2018-09-08T23:15:52.633Z,99.90
2018-09-08T23:18:20.795Z,99.90
2018-09-08T23:20:49.009Z,99.90
2018-09-08T23:23:17.252Z,99.90
2018-09-08T23:25:45.416Z,99.90
2018-09-08T23:28:13.882Z,99.90
2018-09-08T23:30:42.089Z,99.90
2018-09-08T23:33:10.246Z,99.90
2018-09-08T23:35:38.409Z,99.90
2018-09-08T23:38:06.584Z,99.90
2018-09-08T23:40:34.765Z,99.90
2018-09-08T23:43:03.503Z,99.90
2018-09-08T23:45:32.047Z,99.90
2018-09-08T23:48:00.469Z,99.90
2018-09-08T23:50:28.679Z,99.90
2018-09-08T23:52:57.940Z,99.90
2018-09-08T23:55:26.112Z,99.90
2018-09-08T23:57:54.308Z,99.90
